createdAt,value
2018-10-01T00:00:15.760Z,99833
2018-10-01T00:01:20.897Z,99836
2018-10-01T00:02:26.429Z,99845
2018-10-01T00:03:31.180Z,99842
2018-10-01T00:04:36.426Z,99839
2018-10-01T00:05:41.592Z,99848
2018-10-01T00:06:47.267Z,99836
2018-10-01T00:07:52.728Z,99839
2018-10-01T00:08:58.229Z,99836
2018-10-01T00:10:02.946Z,99839
2018-10-01T00:11:07.533Z,99842
2018-10-01T00:12:12.399Z,99836
2018-10-01T00:13:17.891Z,99836
2018-10-01T00:14:23.105Z,99836
2018-10-01T00:15:28.322Z,99833
2018-10-01T00:16:33.330Z,99836
2018-10-01T00:17:38.597Z,99836
2018-10-01T00:18:44.021Z,99836
2018-10-01T00:19:48.629Z,99842
2018-10-01T00:20:53.482Z,99839
2018-10-01T00:21:58.882Z,99839
2018-10-01T00:23:04.407Z,99827
2018-10-01T00:24:09.300Z,99839
2018-10-01T00:25:15.198Z,99827
2018-10-01T00:26:20.671Z,99820
2018-10-01T00:27:40.757Z,99827
2018-10-01T00:28:45.924Z,99817
2018-10-01T00:29:51.368Z,99822
2018-10-01T00:30:56.653Z,99811
2018-10-01T00:32:01.853Z,99808
2018-10-01T00:33:06.444Z,99820
2018-10-01T00:34:12.026Z,99817
2018-10-01T00:35:17.460Z,99823
2018-10-01T00:36:22.382Z,99825
2018-10-01T00:37:28.856Z,99825
2018-10-01T00:38:33.975Z,99825
2018-10-01T00:39:40.038Z,99827
2018-10-01T00:40:45.470Z,99808
2018-10-01T00:41:50.121Z,99808
2018-10-01T00:42:55.680Z,99820
2018-10-01T00:44:00.630Z,99820
2018-10-01T00:45:05.204Z,99811
2018-10-01T00:46:09.817Z,99820
2018-10-01T00:47:14.684Z,99817
2018-10-01T00:48:20.126Z,99817
2018-10-01T00:49:25.027Z,99805
2018-10-01T00:50:29.914Z,99825
2018-10-01T00:51:35.999Z,99817
2018-10-01T00:52:41.280Z,99817
2018-10-01T00:53:46.201Z,99820
2018-10-01T00:54:52.146Z,99811
2018-10-01T00:55:57.095Z,99825
2018-10-01T00:57:02.089Z,99811
2018-10-01T00:58:07.519Z,99817
2018-10-01T00:59:12.960Z,99811
2018-10-01T01:00:18.148Z,99805
2018-10-01T01:01:23.572Z,99805
2018-10-01T01:02:29.105Z,99811
2018-10-01T01:03:34.543Z,99825
2018-10-01T01:04:39.407Z,99820
2018-10-01T01:05:44.890Z,99805
2018-10-01T01:06:50.022Z,99802
2018-10-01T01:07:55.466Z,99805
2018-10-01T01:09:00.986Z,99805
2018-10-01T01:10:06.167Z,99811
2018-10-01T01:11:11.347Z,99808
2018-10-01T01:12:16.577Z,99817
2018-10-01T01:13:22.079Z,99805
2018-10-01T01:14:26.715Z,99817
2018-10-01T01:15:32.450Z,99802
2018-10-01T01:16:37.882Z,99805
2018-10-01T01:17:43.050Z,99805
2018-10-01T01:18:48.315Z,99808
2018-10-01T01:19:53.459Z,99802
2018-10-01T01:20:58.898Z,99802
2018-10-01T01:22:04.331Z,99805
2018-10-01T01:23:09.495Z,99808
2018-10-01T01:24:14.951Z,99805
2018-10-01T01:25:20.464Z,99796
2018-10-01T01:26:25.328Z,99799
2018-10-01T01:27:30.831Z,99799
2018-10-01T01:28:35.121Z,99796
2018-10-01T01:29:40.646Z,99802
2018-10-01T01:30:46.064Z,99805
2018-10-01T01:31:51.241Z,99805
2018-10-01T01:32:56.431Z,99802
2018-10-01T01:34:02.038Z,99799
2018-10-01T01:35:06.340Z,99805
2018-10-01T01:36:11.813Z,99811
2018-10-01T01:37:17.946Z,99820
2018-10-01T01:38:22.839Z,99805
2018-10-01T01:39:29.040Z,99805
2018-10-01T01:40:34.510Z,99808
2018-10-01T01:41:39.408Z,99808
2018-10-01T01:42:44.877Z,99817
2018-10-01T01:43:50.308Z,99808
2018-10-01T01:44:55.802Z,99808
2018-10-01T01:46:01.235Z,99811
2018-10-01T01:47:06.374Z,99823
2018-10-01T01:48:11.862Z,99808
2018-10-01T01:49:16.985Z,99805
2018-10-01T01:50:22.197Z,99802
2018-10-01T01:51:28.072Z,99811
2018-10-01T01:52:33.404Z,99811
2018-10-01T01:53:38.836Z,99811
2018-10-01T01:54:44.594Z,99799
2018-10-01T01:55:49.766Z,99805
2018-10-01T01:56:55.194Z,99793
2018-10-01T01:58:01.060Z,99802
2018-10-01T01:59:06.252Z,99796
2018-10-01T02:00:10.894Z,99799
2018-10-01T02:01:16.518Z,99793
2018-10-01T02:02:21.955Z,99802
2018-10-01T02:03:27.491Z,99802
2018-10-01T02:04:32.449Z,99802
2018-10-01T02:05:37.895Z,99793
2018-10-01T02:06:43.464Z,99793
2018-10-01T02:07:48.699Z,99805
2018-10-01T02:08:54.122Z,99802
2018-10-01T02:09:59.639Z,99802
2018-10-01T02:11:05.230Z,99808
2018-10-01T02:12:10.390Z,99802
2018-10-01T02:13:15.821Z,99805
2018-10-01T02:14:21.251Z,99796
2018-10-01T02:15:27.190Z,99808
2018-10-01T02:16:32.390Z,99802
2018-10-01T02:17:37.544Z,99802
2018-10-01T02:18:42.948Z,99799
2018-10-01T02:19:48.437Z,99793
2018-10-01T02:20:53.598Z,99805
2018-10-01T02:21:59.280Z,99799
2018-10-01T02:23:04.738Z,99799
2018-10-01T02:24:10.174Z,99793
2018-10-01T02:25:15.894Z,99786
2018-10-01T02:26:21.181Z,99799
2018-10-01T02:27:27.213Z,99808
2018-10-01T02:28:32.650Z,99790
2018-10-01T02:29:38.078Z,99790
2018-10-01T02:30:43.839Z,99786
2018-10-01T02:31:48.416Z,99783
2018-10-01T02:32:53.597Z,99788
2018-10-01T02:33:59.294Z,99786
2018-10-01T02:35:04.542Z,99780
2018-10-01T02:36:09.747Z,99777
2018-10-01T02:37:14.876Z,99771
2018-10-01T02:38:19.515Z,99777
2018-10-01T02:39:24.479Z,99783
2018-10-01T02:40:44.822Z,99777
2018-10-01T02:41:49.993Z,99777
2018-10-01T02:42:55.396Z,99786
2018-10-01T02:44:00.864Z,99790
2018-10-01T02:45:05.517Z,99774
2018-10-01T02:46:11.019Z,99768
2018-10-01T02:47:16.192Z,99774
2018-10-01T02:48:21.691Z,99768
2018-10-01T02:49:41.464Z,99774
2018-10-01T02:50:46.970Z,99774
2018-10-01T02:51:52.654Z,99780
2018-10-01T02:52:58.079Z,99783
2018-10-01T02:54:03.555Z,99783
2018-10-01T02:55:09.170Z,99783
2018-10-01T02:56:14.355Z,99783
2018-10-01T02:57:19.537Z,99783
2018-10-01T02:58:24.753Z,99796
2018-10-01T02:59:29.974Z,99790
2018-10-01T03:00:35.215Z,99793
2018-10-01T03:01:40.376Z,99793
2018-10-01T03:02:45.328Z,99805
2018-10-01T03:03:50.746Z,99820
2018-10-01T03:04:55.905Z,99811
2018-10-01T03:06:01.174Z,99799
2018-10-01T03:07:06.372Z,99793
2018-10-01T03:08:11.801Z,99793
2018-10-01T03:09:17.035Z,99788
2018-10-01T03:10:22.578Z,99793
2018-10-01T03:11:27.463Z,99805
2018-10-01T03:12:32.864Z,99790
2018-10-01T03:13:38.016Z,99802
2018-10-01T03:14:43.207Z,99802
2018-10-01T03:15:48.700Z,99802
2018-10-01T03:16:54.131Z,99793
2018-10-01T03:17:59.277Z,99799
2018-10-01T03:19:04.454Z,99802
2018-10-01T03:20:09.925Z,99805
2018-10-01T03:21:15.273Z,99799
2018-10-01T03:22:21.080Z,99796
2018-10-01T03:23:26.576Z,99802
2018-10-01T03:24:31.934Z,99799
2018-10-01T03:25:37.441Z,99799
2018-10-01T03:26:42.868Z,99796
2018-10-01T03:27:48.131Z,99802
2018-10-01T03:28:53.589Z,99799
2018-10-01T03:29:58.484Z,99802
2018-10-01T03:31:04.177Z,99790
2018-10-01T03:32:09.661Z,99796
2018-10-01T03:33:15.161Z,99790
2018-10-01T03:34:20.618Z,99793
2018-10-01T03:35:26.118Z,99811
2018-10-01T03:36:31.826Z,99796
2018-10-01T03:37:37.253Z,99799
2018-10-01T03:38:42.858Z,99796
2018-10-01T03:39:48.657Z,99802
2018-10-01T03:40:53.886Z,99802
2018-10-01T03:41:59.058Z,99799
2018-10-01T03:43:04.609Z,99802
2018-10-01T03:44:10.139Z,99799
2018-10-01T03:45:15.018Z,99796
2018-10-01T03:46:20.420Z,99802
2018-10-01T03:47:25.570Z,99796
2018-10-01T03:48:31.674Z,99796
2018-10-01T03:49:36.862Z,99802
2018-10-01T03:50:41.443Z,99799
2018-10-01T03:51:47.096Z,99799
2018-10-01T03:52:52.277Z,99802
2018-10-01T03:53:57.453Z,99802
2018-10-01T03:55:02.722Z,99805
2018-10-01T03:56:07.589Z,99796
2018-10-01T03:57:12.756Z,99805
2018-10-01T03:58:18.571Z,99811
2018-10-01T03:59:23.707Z,99817
2018-10-01T04:00:29.481Z,99820
2018-10-01T04:01:34.999Z,99808
2018-10-01T04:02:40.149Z,99802
2018-10-01T04:03:46.234Z,99811
2018-10-01T04:04:51.176Z,99808
2018-10-01T04:05:56.431Z,99820
2018-10-01T04:07:02.152Z,99808
2018-10-01T04:08:06.783Z,99802
2018-10-01T04:09:11.942Z,99799
2018-10-01T04:10:17.390Z,99805
2018-10-01T04:11:22.262Z,99799
2018-10-01T04:12:27.814Z,99805
2018-10-01T04:13:32.991Z,99791
2018-10-01T04:14:38.511Z,99802
2018-10-01T04:15:44.287Z,99799
2018-10-01T04:16:49.446Z,99802
2018-10-01T04:17:54.664Z,99794
2018-10-01T04:19:00.185Z,99808
2018-10-01T04:20:05.132Z,99805
2018-10-01T04:21:10.024Z,99808
2018-10-01T04:22:15.003Z,99799
2018-10-01T04:23:20.161Z,99808
2018-10-01T04:25:45.394Z,99802
2018-10-01T04:26:50.826Z,99799
2018-10-01T04:27:56.232Z,99805
2018-10-01T04:29:01.671Z,99808
2018-10-01T04:30:06.894Z,99823
2018-10-01T04:31:12.483Z,99802
2018-10-01T04:32:17.976Z,99805
2018-10-01T04:33:22.699Z,99808
2018-10-01T04:34:27.612Z,99805
2018-10-01T04:35:33.092Z,99805
2018-10-01T04:36:39.075Z,99808
2018-10-01T04:37:44.226Z,99805
2018-10-01T04:38:49.380Z,99808
2018-10-01T04:39:55.252Z,99805
2018-10-01T04:41:00.715Z,99800
2018-10-01T04:42:05.921Z,99805
2018-10-01T04:43:10.815Z,99808
2018-10-01T04:44:16.306Z,99808
2018-10-01T04:45:21.802Z,99811
2018-10-01T04:46:27.613Z,99808
2018-10-01T04:47:32.473Z,99802
2018-10-01T04:48:37.692Z,99808
2018-10-01T04:49:42.911Z,99826
2018-10-01T04:50:47.539Z,99820
2018-10-01T04:51:53.268Z,99817
2018-10-01T04:52:58.486Z,99826
2018-10-01T04:54:03.639Z,99828
2018-10-01T04:55:09.369Z,99817
2018-10-01T04:56:13.997Z,99833
2018-10-01T04:57:18.925Z,99833
2018-10-01T04:58:24.566Z,99836
2018-10-01T04:59:30.622Z,99851
2018-10-01T05:00:36.418Z,99839
2018-10-01T05:01:42.387Z,99842
2018-10-01T05:02:46.976Z,99831
2018-10-01T05:03:52.279Z,99839
2018-10-01T05:04:57.445Z,99834
2018-10-01T05:06:02.405Z,99836
2018-10-01T05:07:07.734Z,99839
2018-10-01T05:08:12.719Z,99848
2018-10-01T05:09:18.244Z,99834
2018-10-01T05:10:23.425Z,99836
2018-10-01T05:11:28.576Z,99848
2018-10-01T05:12:34.035Z,99839
2018-10-01T05:13:39.192Z,99848
2018-10-01T05:14:44.498Z,99839
2018-10-01T05:15:50.215Z,99842
2018-10-01T05:16:55.356Z,99834
2018-10-01T05:18:00.332Z,99836
2018-10-01T05:19:05.986Z,99836
2018-10-01T05:20:11.502Z,99842
2018-10-01T05:21:16.928Z,99851
2018-10-01T05:22:22.327Z,99839
2018-10-01T05:23:27.543Z,99839
2018-10-01T05:24:33.025Z,99845
2018-10-01T05:25:38.233Z,99842
2018-10-01T05:26:43.426Z,99848
2018-10-01T05:27:48.553Z,99839
2018-10-01T05:28:53.740Z,99845
2018-10-01T05:29:58.328Z,99854
2018-10-01T05:31:04.143Z,99839
2018-10-01T05:32:09.302Z,99839
2018-10-01T05:33:14.211Z,99839
2018-10-01T05:34:19.339Z,99837
2018-10-01T05:35:24.777Z,99848
2018-10-01T05:36:30.370Z,99848
2018-10-01T05:37:34.953Z,99845
2018-10-01T05:38:39.816Z,99854
2018-10-01T05:39:45.855Z,99842
2018-10-01T05:40:50.720Z,99857
2018-10-01T05:41:56.189Z,99865
2018-10-01T05:43:01.475Z,99857
2018-10-01T05:44:06.267Z,99863
2018-10-01T05:45:10.869Z,99848
2018-10-01T05:46:16.662Z,99860
2018-10-01T05:47:21.815Z,99865
2018-10-01T05:48:27.405Z,99863
2018-10-01T05:49:32.913Z,99865
2018-10-01T05:50:38.330Z,99860
2018-10-01T05:51:44.281Z,99854
2018-10-01T05:52:49.480Z,99863
2018-10-01T05:53:54.908Z,99868
2018-10-01T05:55:00.857Z,99874
2018-10-01T05:56:06.081Z,99880
2018-10-01T05:57:11.236Z,99871
2018-10-01T05:58:17.465Z,99868
2018-10-01T05:59:23.013Z,99877
2018-10-01T06:00:28.137Z,99865
2018-10-01T06:01:32.854Z,99880
2018-10-01T06:02:37.717Z,99883
2018-10-01T06:03:43.498Z,99877
2018-10-01T06:04:48.887Z,99883
2018-10-01T06:05:54.751Z,99894
2018-10-01T06:07:00.193Z,99894
2018-10-01T06:08:05.380Z,99892
2018-10-01T06:09:10.381Z,99903
2018-10-01T06:10:15.785Z,99900
2018-10-01T06:11:20.646Z,99894
2018-10-01T06:12:26.888Z,99903
2018-10-01T06:13:32.318Z,99897
2018-10-01T06:14:37.481Z,99900
2018-10-01T06:15:43.385Z,99906
2018-10-01T06:16:48.251Z,99900
2018-10-01T06:17:53.465Z,99900
2018-10-01T06:18:59.017Z,99897
2018-10-01T06:20:04.174Z,99903
2018-10-01T06:21:09.394Z,99897
2018-10-01T06:22:14.509Z,99900
2018-10-01T06:23:19.948Z,99909
2018-10-01T06:24:25.593Z,99909
2018-10-01T06:25:30.208Z,99897
2018-10-01T06:26:35.346Z,99900
2018-10-01T06:27:40.938Z,99900
2018-10-01T06:28:45.577Z,99906
2018-10-01T06:29:50.733Z,99918
2018-10-01T06:30:55.901Z,99915
2018-10-01T06:32:00.779Z,99900
2018-10-01T06:33:06.368Z,99912
2018-10-01T06:34:11.272Z,99920
2018-10-01T06:35:16.777Z,99912
2018-10-01T06:36:22.353Z,99906
2018-10-01T06:37:28.241Z,99909
2018-10-01T06:38:33.155Z,99915
2018-10-01T06:39:38.545Z,99909
2018-10-01T06:40:43.747Z,99920
2018-10-01T06:41:49.302Z,99915
2018-10-01T06:42:55.034Z,99923
2018-10-01T06:44:00.212Z,99932
2018-10-01T06:45:05.149Z,99926
2018-10-01T06:46:10.290Z,99926
2018-10-01T06:47:15.731Z,99932
2018-10-01T06:48:20.924Z,99929
2018-10-01T06:49:25.776Z,99920
2018-10-01T06:50:30.645Z,99932
2018-10-01T06:51:36.452Z,99938
2018-10-01T06:52:41.901Z,99932
2018-10-01T06:53:47.428Z,99935
2018-10-01T06:54:52.865Z,99941
2018-10-01T06:55:57.452Z,99947
2018-10-01T06:57:02.795Z,99938
2018-10-01T06:58:08.441Z,99935
2018-10-01T06:59:13.601Z,99941
2018-10-01T07:00:18.742Z,99944
2018-10-01T07:01:24.215Z,99944
2018-10-01T07:02:29.126Z,99938
2018-10-01T07:03:34.083Z,99944
2018-10-01T07:04:39.246Z,99944
2018-10-01T07:05:45.289Z,99955
2018-10-01T07:06:50.816Z,99941
2018-10-01T07:07:55.977Z,99961
2018-10-01T07:09:00.557Z,99958
2018-10-01T07:10:05.874Z,99958
2018-10-01T07:11:10.707Z,99967
2018-10-01T07:12:15.870Z,99961
2018-10-01T07:13:20.454Z,99961
2018-10-01T07:14:25.753Z,99947
2018-10-01T07:15:31.277Z,99972
2018-10-01T07:16:36.456Z,99961
2018-10-01T07:17:41.394Z,99972
2018-10-01T07:18:46.796Z,99972
2018-10-01T07:19:51.969Z,99961
2018-10-01T07:20:56.846Z,99969
2018-10-01T07:22:02.002Z,99969
2018-10-01T07:23:07.034Z,99972
2018-10-01T07:24:13.408Z,99969
2018-10-01T07:25:18.908Z,99972
2018-10-01T07:26:24.051Z,99977
2018-10-01T07:27:29.729Z,99983
2018-10-01T07:28:34.891Z,99972
2018-10-01T07:29:39.836Z,99977
2018-10-01T07:30:45.727Z,99983
2018-10-01T07:31:50.605Z,99975
2018-10-01T07:32:55.786Z,99972
2018-10-01T07:34:01.274Z,99972
2018-10-01T07:35:06.154Z,99977
2018-10-01T07:36:11.032Z,99986
2018-10-01T07:37:16.605Z,99980
2018-10-01T07:38:21.780Z,99980
2018-10-01T07:39:26.946Z,99975
2018-10-01T07:40:31.846Z,99983
2018-10-01T07:41:37.237Z,99980
2018-10-01T07:42:42.682Z,99977
2018-10-01T07:43:48.136Z,99977
2018-10-01T07:44:53.287Z,99980
2018-10-01T07:45:59.418Z,99986
2018-10-01T07:47:04.705Z,99983
2018-10-01T07:48:09.409Z,99983
2018-10-01T07:49:14.815Z,99986
2018-10-01T07:50:19.423Z,99980
2018-10-01T07:51:24.082Z,99989
2018-10-01T07:52:43.585Z,99992
2018-10-01T07:53:49.165Z,99995
2018-10-01T07:54:53.980Z,99995
2018-10-01T07:55:58.588Z,99989
2018-10-01T07:57:03.637Z,100001
2018-10-01T07:58:09.157Z,99989
2018-10-01T07:59:14.656Z,99992
2018-10-01T08:00:20.374Z,100001
2018-10-01T08:01:26.263Z,99992
2018-10-01T08:02:31.253Z,99998
2018-10-01T08:03:36.992Z,99992
2018-10-01T08:04:41.580Z,99998
2018-10-01T08:05:46.720Z,99995
2018-10-01T08:06:51.850Z,99995
2018-10-01T08:07:56.845Z,100003
2018-10-01T08:09:02.077Z,100001
2018-10-01T08:10:06.442Z,99989
2018-10-01T08:11:11.889Z,100003
2018-10-01T08:12:17.049Z,100001
2018-10-01T08:13:22.236Z,100001
2018-10-01T08:14:27.277Z,100012
2018-10-01T08:15:33.117Z,100003
2018-10-01T08:16:38.272Z,100003
2018-10-01T08:17:43.817Z,100012
2018-10-01T08:18:49.220Z,100018
2018-10-01T08:19:54.476Z,100018
2018-10-01T08:20:59.712Z,100009
2018-10-01T08:22:05.435Z,100006
2018-10-01T08:23:10.036Z,100012
2018-10-01T08:24:15.552Z,100015
2018-10-01T08:25:21.285Z,100018
2018-10-01T08:26:26.272Z,100012
2018-10-01T08:27:32.706Z,100012
2018-10-01T08:28:37.290Z,100018
2018-10-01T08:29:42.993Z,100009
2018-10-01T08:30:49.180Z,100012
2018-10-01T08:31:54.703Z,100012
2018-10-01T08:32:59.701Z,100018
2018-10-01T08:34:05.493Z,100021
2018-10-01T08:35:10.246Z,100012
2018-10-01T08:36:15.741Z,100003
2018-10-01T08:37:21.387Z,100018
2018-10-01T08:38:26.981Z,100021
2018-10-01T08:39:33.337Z,100021
2018-10-01T08:40:38.834Z,100024
2018-10-01T08:41:43.700Z,100032
2018-10-01T08:42:49.293Z,100018
2018-10-01T08:43:54.165Z,100030
2018-10-01T08:44:59.436Z,100030
2018-10-01T08:46:05.236Z,100030
2018-10-01T08:47:10.682Z,100035
2018-10-01T08:48:16.571Z,100041
2018-10-01T08:49:22.005Z,100035
2018-10-01T08:50:27.405Z,100030
2018-10-01T08:51:33.623Z,100035
2018-10-01T08:52:38.939Z,100044
2018-10-01T08:53:43.539Z,100035
2018-10-01T08:54:48.682Z,100035
2018-10-01T08:55:53.834Z,100041
2018-10-01T08:56:59.017Z,100038
2018-10-01T08:58:04.642Z,100041
2018-10-01T08:59:10.195Z,100038
2018-10-01T09:00:15.857Z,100038
2018-10-01T09:01:21.321Z,100044
2018-10-01T09:02:26.921Z,100041
2018-10-01T09:03:32.671Z,100030
2018-10-01T09:04:37.802Z,100047
2018-10-01T09:05:42.411Z,100035
2018-10-01T09:06:48.217Z,100032
2018-10-01T09:07:53.377Z,100038
2018-10-01T09:08:58.603Z,100053
2018-10-01T09:10:04.387Z,100038
2018-10-01T09:11:09.697Z,100035
2018-10-01T09:12:14.861Z,100041
2018-10-01T09:13:19.976Z,100044
2018-10-01T09:14:25.540Z,100038
2018-10-01T09:15:31.567Z,100044
2018-10-01T09:16:37.107Z,100030
2018-10-01T09:17:41.962Z,100044
2018-10-01T09:18:47.074Z,100047
2018-10-01T09:19:51.936Z,100053
2018-10-01T09:20:57.120Z,100044
2018-10-01T09:22:02.469Z,100044
2018-10-01T09:23:07.295Z,100050
2018-10-01T09:24:12.642Z,100047
2018-10-01T09:25:18.451Z,100050
2018-10-01T09:26:23.369Z,100053
2018-10-01T09:27:29.377Z,100050
2018-10-01T09:28:34.808Z,100050
2018-10-01T09:29:40.241Z,100047
2018-10-01T09:30:46.043Z,100059
2018-10-01T09:31:51.229Z,100050
2018-10-01T09:32:56.389Z,100053
2018-10-01T09:34:01.803Z,100047
2018-10-01T09:35:07.002Z,100053
2018-10-01T09:36:12.475Z,100041
2018-10-01T09:37:17.763Z,100047
2018-10-01T09:38:23.082Z,100047
2018-10-01T09:39:29.055Z,100047
2018-10-01T09:40:34.499Z,100056
2018-10-01T09:41:40.466Z,100056
2018-10-01T09:42:45.942Z,100053
2018-10-01T09:43:51.432Z,100053
2018-10-01T09:44:56.293Z,100053
2018-10-01T09:46:02.404Z,100056
2018-10-01T09:47:07.597Z,100059
2018-10-01T09:48:12.681Z,100047
2018-10-01T09:49:18.459Z,100053
2018-10-01T09:50:23.622Z,100050
2018-10-01T09:51:29.007Z,100053
2018-10-01T09:52:34.603Z,100059
2018-10-01T09:53:40.032Z,100061
2018-10-01T09:54:45.155Z,100047
2018-10-01T09:55:49.898Z,100050
2018-10-01T09:56:55.144Z,100035
2018-10-01T09:58:00.763Z,100044
2018-10-01T09:59:05.705Z,100050
2018-10-01T10:00:11.008Z,100035
2018-10-01T10:01:16.767Z,100044
2018-10-01T10:02:21.358Z,100050
2018-10-01T10:03:42.264Z,100047
2018-10-01T10:04:47.500Z,100047
2018-10-01T10:05:52.994Z,100038
2018-10-01T10:06:58.771Z,100044
2018-10-01T10:08:03.806Z,100050
2018-10-01T10:09:08.815Z,100047
2018-10-01T10:10:14.935Z,100032
2018-10-01T10:11:20.807Z,100041
2018-10-01T10:12:41.297Z,100044
2018-10-01T10:13:46.421Z,100044
2018-10-01T10:14:51.295Z,100041
2018-10-01T10:15:56.714Z,100050
2018-10-01T10:17:02.091Z,100053
2018-10-01T10:18:07.513Z,100053
2018-10-01T10:19:13.351Z,100053
2018-10-01T10:20:18.236Z,100038
2018-10-01T10:21:23.764Z,100050
2018-10-01T10:22:44.217Z,100041
2018-10-01T10:23:49.370Z,100044
2018-10-01T10:24:55.050Z,100041
2018-10-01T10:26:00.107Z,100044
2018-10-01T10:27:05.705Z,100047
2018-10-01T10:28:12.292Z,100050
2018-10-01T10:29:17.587Z,100041
2018-10-01T10:30:22.775Z,100056
2018-10-01T10:31:28.056Z,100056
2018-10-01T10:32:33.082Z,100050
2018-10-01T10:33:39.479Z,100059
2018-10-01T10:34:44.970Z,100047
2018-10-01T10:35:49.593Z,100064
2018-10-01T10:36:54.818Z,100053
2018-10-01T10:38:00.458Z,100050
2018-10-01T10:39:05.525Z,100061
2018-10-01T10:40:10.985Z,100056
2018-10-01T10:41:16.319Z,100047
2018-10-01T10:42:21.568Z,100044
2018-10-01T10:43:27.462Z,100050
2018-10-01T10:44:32.489Z,100047
2018-10-01T10:45:38.297Z,100050
2018-10-01T10:46:43.613Z,100053
2018-10-01T10:47:48.923Z,100041
2018-10-01T10:48:54.195Z,100035
2018-10-01T10:49:59.875Z,100053
2018-10-01T10:51:04.958Z,100047
2018-10-01T10:52:10.638Z,100044
2018-10-01T10:53:15.516Z,100047
2018-10-01T10:54:21.048Z,100053
2018-10-01T10:55:25.921Z,100053
2018-10-01T10:56:31.477Z,100047
2018-10-01T10:57:37.189Z,100059
2018-10-01T10:58:42.050Z,100050
2018-10-01T10:59:47.494Z,100038
2018-10-01T11:00:53.307Z,100053
2018-10-01T11:01:58.206Z,100050
2018-10-01T11:03:03.486Z,100047
2018-10-01T11:04:08.508Z,100041
2018-10-01T11:05:13.650Z,100050
2018-10-01T11:06:19.144Z,100050
2018-10-01T11:07:24.832Z,100047
2018-10-01T11:08:30.121Z,100041
2018-10-01T11:09:35.813Z,100035
2018-10-01T11:10:41.260Z,100038
2018-10-01T11:11:46.610Z,100035
2018-10-01T11:12:52.342Z,100041
2018-10-01T11:13:58.059Z,100047
2018-10-01T11:15:04.503Z,100032
2018-10-01T11:16:11.811Z,100032
2018-10-01T11:17:17.321Z,100035
2018-10-01T11:18:22.616Z,100030
2018-10-01T11:19:27.605Z,100021
2018-10-01T11:20:33.066Z,100027
2018-10-01T11:21:39.833Z,100027
2018-10-01T11:22:46.063Z,100021
2018-10-01T11:23:51.241Z,100024
2018-10-01T11:24:56.472Z,100041
2018-10-01T11:26:01.063Z,100027
2018-10-01T11:27:06.321Z,100027
2018-10-01T11:28:12.378Z,100032
2018-10-01T11:29:17.248Z,100030
2018-10-01T11:30:22.621Z,100030
2018-10-01T11:31:28.375Z,100035
2018-10-01T11:32:32.962Z,100027
2018-10-01T11:33:39.065Z,100032
2018-10-01T11:34:45.412Z,100030
2018-10-01T11:35:51.118Z,100021
2018-10-01T11:36:55.988Z,100032
2018-10-01T11:38:01.263Z,100032
2018-10-01T11:39:06.341Z,100038
2018-10-01T11:40:11.226Z,100041
2018-10-01T11:41:16.432Z,100047
2018-10-01T11:42:21.613Z,100056
2018-10-01T11:43:27.399Z,100056
2018-10-01T11:44:32.338Z,100056
2018-10-01T11:45:38.456Z,100067
2018-10-01T11:46:44.393Z,100056
2018-10-01T11:47:49.956Z,100056
2018-10-01T11:48:55.742Z,100047
2018-10-01T11:50:00.316Z,100056
2018-10-01T11:51:05.015Z,100041
2018-10-01T11:52:10.487Z,100050
2018-10-01T11:53:15.637Z,100053
2018-10-01T11:54:21.086Z,100047
2018-10-01T11:55:27.967Z,100053
2018-10-01T11:56:32.564Z,100044
2018-10-01T11:57:38.210Z,100053
2018-10-01T11:58:44.245Z,100053
2018-10-01T11:59:49.879Z,100059
2018-10-01T12:00:55.639Z,100059
2018-10-01T12:02:00.839Z,100064
2018-10-01T12:03:05.937Z,100070
2018-10-01T12:04:12.073Z,100064
2018-10-01T12:05:16.821Z,100056
2018-10-01T12:06:22.385Z,100059
2018-10-01T12:07:27.961Z,100062
2018-10-01T12:08:32.836Z,100053
2018-10-01T12:09:39.076Z,100044
2018-10-01T12:10:45.677Z,100044
2018-10-01T12:11:51.080Z,100050
2018-10-01T12:12:56.509Z,100059
2018-10-01T12:14:01.661Z,100050
2018-10-01T12:15:06.639Z,100053
2018-10-01T12:16:12.669Z,100061
2018-10-01T12:17:18.786Z,100041
2018-10-01T12:18:24.009Z,100053
2018-10-01T12:19:44.413Z,100056
2018-10-01T12:20:49.556Z,100059
2018-10-01T12:21:54.740Z,100061
2018-10-01T12:23:00.058Z,100067
2018-10-01T12:24:04.978Z,100070
2018-10-01T12:25:10.235Z,100070
2018-10-01T12:26:15.263Z,100067
2018-10-01T12:27:20.506Z,100061
2018-10-01T12:28:27.116Z,100070
2018-10-01T12:29:31.710Z,100075
2018-10-01T12:30:36.792Z,100121
2018-10-01T12:31:41.939Z,100110
2018-10-01T12:32:47.424Z,100098
2018-10-01T12:33:52.869Z,100121
2018-10-01T12:34:58.429Z,100124
2018-10-01T12:36:03.749Z,100130
2018-10-01T12:37:08.994Z,100121
2018-10-01T12:38:14.264Z,100133
2018-10-01T12:39:20.285Z,100127
2018-10-01T12:40:25.688Z,100139
2018-10-01T12:41:30.827Z,100127
2018-10-01T12:42:35.834Z,100145
2018-10-01T12:43:41.697Z,100133
2018-10-01T12:44:47.127Z,100133
2018-10-01T12:45:52.809Z,100145
2018-10-01T12:46:58.238Z,100136
2018-10-01T12:48:03.111Z,100139
2018-10-01T12:49:08.548Z,100147
2018-10-01T12:50:13.469Z,100147
2018-10-01T12:51:18.991Z,100145
2018-10-01T12:52:24.944Z,100139
2018-10-01T12:53:30.647Z,100139
2018-10-01T12:54:36.197Z,100124
2018-10-01T12:55:41.365Z,100142
2018-10-01T12:56:47.143Z,100127
2018-10-01T12:57:52.584Z,100133
2018-10-01T12:58:57.172Z,100142
2018-10-01T13:00:02.072Z,100142
2018-10-01T13:01:07.676Z,100145
2018-10-01T13:02:13.325Z,100133
2018-10-01T13:03:18.845Z,100136
2018-10-01T13:04:24.480Z,100127
2018-10-01T13:05:30.048Z,100133
2018-10-01T13:06:36.082Z,100139
2018-10-01T13:07:42.062Z,100139
2018-10-01T13:08:47.847Z,100133
2018-10-01T13:09:52.870Z,100130
2018-10-01T13:10:57.743Z,100147
2018-10-01T13:12:03.020Z,100142
2018-10-01T13:13:08.490Z,100147
2018-10-01T13:14:13.697Z,100149
2018-10-01T13:15:19.132Z,100152
2018-10-01T13:16:24.336Z,100152
2018-10-01T13:17:29.541Z,100161
2018-10-01T13:18:35.471Z,100155
2018-10-01T13:19:41.404Z,100161
2018-10-01T13:20:46.544Z,100167
2018-10-01T13:21:51.428Z,100161
2018-10-01T13:22:56.913Z,100155
2018-10-01T13:24:01.632Z,100170
2018-10-01T13:25:07.453Z,100161
2018-10-01T13:26:13.587Z,100161
2018-10-01T13:27:18.566Z,100158
2018-10-01T13:28:24.055Z,100161
2018-10-01T13:29:29.527Z,100155
2018-10-01T13:30:35.431Z,100158
2018-10-01T13:31:40.268Z,100167
2018-10-01T13:32:45.662Z,100161
2018-10-01T13:33:51.341Z,100164
2018-10-01T13:34:56.502Z,100167
2018-10-01T13:36:01.535Z,100161
2018-10-01T13:37:08.167Z,100152
2018-10-01T13:38:13.442Z,100173
2018-10-01T13:39:18.807Z,100164
2018-10-01T13:40:24.545Z,100161
2018-10-01T13:41:30.175Z,100161
2018-10-01T13:42:35.909Z,100158
2018-10-01T13:43:41.065Z,100164
2018-10-01T13:44:46.031Z,100167
2018-10-01T13:45:51.508Z,100161
2018-10-01T13:46:56.368Z,100167
2018-10-01T13:48:01.647Z,100170
2018-10-01T13:49:06.652Z,100164
2018-10-01T13:50:12.139Z,100161
2018-10-01T13:51:17.811Z,100170
2018-10-01T13:52:22.838Z,100164
2018-10-01T13:53:27.939Z,100167